sensor_id;sensor_type;location;lat;lon;timestamp;temperature;humidity
22742;DHT22;11538;48.884;8.696;2022-12-20T00:00:50;3.70;99.90
22742;DHT22;11538;48.884;8.696;2022-12-20T00:03:17;3.70;99.90
22742;DHT22;11538;48.884;8.696;2022-12-20T00:05:46;3.70;99.90
22742;DHT22;11538;48.884;8.696;2022-12-20T00:08:13;3.70;99.90
22742;DHT22;11538;48.884;8.696;2022-12-20T00:10:42;3.70;99.90
22742;DHT22;11538;48.884;8.696;2022-12-20T00:13:10;3.70;99.90
22742;DHT22;11538;48.884;8.696;2022-12-20T00:15:38;3.70;99.90
22742;DHT22;11538;48.884;8.696;2022-12-20T00:18:04;3.70;99.90
22742;DHT22;11538;48.884;8.696;2022-12-20T00:20:32;3.70;99.90
22742;DHT22;11538;48.884;8.696;2022-12-20T00:22:59;3.70;99.90
22742;DHT22;11538;48.884;8.696;2022-12-20T00:25:26;3.70;99.90
22742;DHT22;11538;48.884;8.696;2022-12-20T00:27:53;3.70;99.90
22742;DHT22;11538;48.884;8.696;2022-12-20T00:30:38;3.70;99.90
22742;DHT22;11538;48.884;8.696;2022-12-20T00:33:24;3.70;99.90
22742;DHT22;11538;48.884;8.696;2022-12-20T00:35:50;3.70;99.90
22742;DHT22;11538;48.884;8.696;2022-12-20T00:38:17;3.80;99.90
22742;DHT22;11538;48.884;8.696;2022-12-20T00:40:44;3.80;99.90
22742;DHT22;11538;48.884;8.696;2022-12-20T00:43:11;3.80;99.90
22742;DHT22;11538;48.884;8.696;2022-12-20T00:45:38;3.80;99.90
22742;DHT22;11538;48.884;8.696;2022-12-20T00:48:05;3.80;99.90
22742;DHT22;11538;48.884;8.696;2022-12-20T00:50:31;3.80;99.90
22742;DHT22;11538;48.884;8.696;2022-12-20T00:52:58;3.80;99.90
22742;DHT22;11538;48.884;8.696;2022-12-20T00:55:25;3.80;99.90
22742;DHT22;11538;48.884;8.696;2022-12-20T00:57:52;3.80;99.90
22742;DHT22;11538;48.884;8.696;2022-12-20T01:00:18;3.80;99.90
22742;DHT22;11538;48.884;8.696;2022-12-20T01:02:46;3.80;99.90
22742;DHT22;11538;48.884;8.696;2022-12-20T01:05:13;3.80;99.90
22742;DHT22;11538;48.884;8.696;2022-12-20T01:07:39;3.80;99.90
22742;DHT22;11538;48.884;8.696;2022-12-20T01:10:07;3.90;99.90
22742;DHT22;11538;48.884;8.696;2022-12-20T01:12:34;3.90;99.90
22742;DHT22;11538;48.884;8.696;2022-12-20T01:15:01;3.90;99.90
22742;DHT22;11538;48.884;8.696;2022-12-20T01:17:28;3.90;99.90
22742;DHT22;11538;48.884;8.696;2022-12-20T01:19:55;3.90;99.90
22742;DHT22;11538;48.884;8.696;2022-12-20T01:22:21;3.90;99.90
22742;DHT22;11538;48.884;8.696;2022-12-20T01:24:48;3.90;99.90
22742;DHT22;11538;48.884;8.696;2022-12-20T01:27:15;3.90;99.90
22742;DHT22;11538;48.884;8.696;2022-12-20T01:29:42;3.90;99.90
22742;DHT22;11538;48.884;8.696;2022-12-20T01:32:08;3.90;99.90
22742;DHT22;11538;48.884;8.696;2022-12-20T01:34:35;3.90;99.90
22742;DHT22;11538;48.884;8.696;2022-12-20T01:37:02;3.90;99.90
22742;DHT22;11538;48.884;8.696;2022-12-20T01:39:29;3.90;99.90
22742;DHT22;11538;48.884;8.696;2022-12-20T01:41:56;3.90;99.90
22742;DHT22;11538;48.884;8.696;2022-12-20T01:46:50;3.90;99.90
22742;DHT22;11538;48.884;8.696;2022-12-20T01:52:05;4.00;99.90
22742;DHT22;11538;48.884;8.696;2022-12-20T01:54:52;4.00;99.90
22742;DHT22;11538;48.884;8.696;2022-12-20T01:57:23;4.00;99.90
22742;DHT22;11538;48.884;8.696;2022-12-20T01:59:54;4.00;99.90
22742;DHT22;11538;48.884;8.696;2022-12-20T02:02:22;4.00;99.90
22742;DHT22;11538;48.884;8.696;2022-12-20T02:04:50;4.00;99.90
22742;DHT22;11538;48.884;8.696;2022-12-20T02:07:18;4.00;99.90
22742;DHT22;11538;48.884;8.696;2022-12-20T02:09:49;4.00;99.90
22742;DHT22;11538;48.884;8.696;2022-12-20T02:12:20;4.00;99.90
22742;DHT22;11538;48.884;8.696;2022-12-20T02:15:04;4.00;99.90
22742;DHT22;11538;48.884;8.696;2022-12-20T02:18:18;4.10;99.90
22742;DHT22;11538;48.884;8.696;2022-12-20T02:21:07;4.10;99.90
22742;DHT22;11538;48.884;8.696;2022-12-20T02:29:24;4.10;99.90
22742;DHT22;11538;48.884;8.696;2022-12-20T02:32:15;4.10;99.90
22742;DHT22;11538;48.884;8.696;2022-12-20T02:34:47;4.10;99.90
22742;DHT22;11538;48.884;8.696;2022-12-20T02:37:16;4.10;99.90
22742;DHT22;11538;48.884;8.696;2022-12-20T02:39:43;4.10;99.90
22742;DHT22;11538;48.884;8.696;2022-12-20T02:42:12;4.20;99.90
22742;DHT22;11538;48.884;8.696;2022-12-20T02:44:42;4.20;99.90
22742;DHT22;11538;48.884;8.696;2022-12-20T02:47:32;4.20;99.90
22742;DHT22;11538;48.884;8.696;2022-12-20T02:50:14;4.30;99.90
22742;DHT22;11538;48.884;8.696;2022-12-20T02:52:44;4.30;99.90
22742;DHT22;11538;48.884;8.696;2022-12-20T02:55:11;4.40;99.90
22742;DHT22;11538;48.884;8.696;2022-12-20T02:57:43;4.40;99.90
22742;DHT22;11538;48.884;8.696;2022-12-20T03:00:25;4.40;99.90
22742;DHT22;11538;48.884;8.696;2022-12-20T03:02:58;4.40;99.90
22742;DHT22;11538;48.884;8.696;2022-12-20T03:05:45;4.50;99.90
22742;DHT22;11538;48.884;8.696;2022-12-20T03:08:14;4.50;99.90
22742;DHT22;11538;48.884;8.696;2022-12-20T03:10:41;4.50;99.90
22742;DHT22;11538;48.884;8.696;2022-12-20T03:13:08;4.50;99.90
22742;DHT22;11538;48.884;8.696;2022-12-20T03:15:35;4.50;99.90
22742;DHT22;11538;48.884;8.696;2022-12-20T03:18:02;4.50;99.90
22742;DHT22;11538;48.884;8.696;2022-12-20T03:20:29;4.50;99.90
22742;DHT22;11538;48.884;8.696;2022-12-20T03:22:55;4.50;99.90
22742;DHT22;11538;48.884;8.696;2022-12-20T03:25:22;4.50;99.90
22742;DHT22;11538;48.884;8.696;2022-12-20T03:27:49;4.50;99.90
22742;DHT22;11538;48.884;8.696;2022-12-20T03:30:16;4.50;99.90
22742;DHT22;11538;48.884;8.696;2022-12-20T03:32:42;4.50;99.90
22742;DHT22;11538;48.884;8.696;2022-12-20T03:35:09;4.50;99.90
22742;DHT22;11538;48.884;8.696;2022-12-20T03:37:36;4.50;99.90
22742;DHT22;11538;48.884;8.696;2022-12-20T03:40:03;4.40;99.90
22742;DHT22;11538;48.884;8.696;2022-12-20T03:42:31;4.40;99.90
22742;DHT22;11538;48.884;8.696;2022-12-20T03:44:58;4.40;99.90
22742;DHT22;11538;48.884;8.696;2022-12-20T03:47:25;4.40;99.90
22742;DHT22;11538;48.884;8.696;2022-12-20T03:49:52;4.40;99.90
22742;DHT22;11538;48.884;8.696;2022-12-20T03:52:18;4.40;99.90
22742;DHT22;11538;48.884;8.696;2022-12-20T03:54:45;4.30;99.90
22742;DHT22;11538;48.884;8.696;2022-12-20T03:57:12;4.30;99.90
22742;DHT22;11538;48.884;8.696;2022-12-20T03:59:39;4.30;99.90
22742;DHT22;11538;48.884;8.696;2022-12-20T04:02:05;4.30;99.90
22742;DHT22;11538;48.884;8.696;2022-12-20T04:04:32;4.30;99.90
22742;DHT22;11538;48.884;8.696;2022-12-20T04:06:59;4.30;99.90
22742;DHT22;11538;48.884;8.696;2022-12-20T04:09:26;4.30;99.90
22742;DHT22;11538;48.884;8.696;2022-12-20T04:11:53;4.30;99.90
22742;DHT22;11538;48.884;8.696;2022-12-20T04:14:20;4.20;99.90
22742;DHT22;11538;48.884;8.696;2022-12-20T04:16:46;4.20;99.90
22742;DHT22;11538;48.884;8.696;2022-12-20T04:19:13;4.20;99.90
22742;DHT22;11538;48.884;8.696;2022-12-20T04:21:40;4.20;99.90
22742;DHT22;11538;48.884;8.696;2022-12-20T04:24:07;4.20;99.90
22742;DHT22;11538;48.884;8.696;2022-12-20T04:26:34;4.20;99.90
22742;DHT22;11538;48.884;8.696;2022-12-20T04:29:00;4.20;99.90
22742;DHT22;11538;48.884;8.696;2022-12-20T04:31:27;4.20;99.90
22742;DHT22;11538;48.884;8.696;2022-12-20T04:33:54;4.20;99.90
22742;DHT22;11538;48.884;8.696;2022-12-20T04:36:21;4.20;99.90
22742;DHT22;11538;48.884;8.696;2022-12-20T04:38:48;4.20;99.90
22742;DHT22;11538;48.884;8.696;2022-12-20T04:41:15;4.20;99.90
22742;DHT22;11538;48.884;8.696;2022-12-20T04:43:53;4.20;99.90
22742;DHT22;11538;48.884;8.696;2022-12-20T04:46:22;4.20;99.90
22742;DHT22;11538;48.884;8.696;2022-12-20T04:48:50;4.20;99.90
22742;DHT22;11538;48.884;8.696;2022-12-20T04:51:26;4.20;99.90
22742;DHT22;11538;48.884;8.696;2022-12-20T04:53:53;4.20;99.90
22742;DHT22;11538;48.884;8.696;2022-12-20T04:56:21;4.20;99.90
22742;DHT22;11538;48.884;8.696;2022-12-20T04:58:52;4.20;99.90
22742;DHT22;11538;48.884;8.696;2022-12-20T05:01:20;4.20;99.90
22742;DHT22;11538;48.884;8.696;2022-12-20T05:03:47;4.20;99.90
22742;DHT22;11538;48.884;8.696;2022-12-20T05:06:15;4.20;99.90
22742;DHT22;11538;48.884;8.696;2022-12-20T05:08:42;4.20;99.90
22742;DHT22;11538;48.884;8.696;2022-12-20T05:11:09;4.20;99.90
22742;DHT22;11538;48.884;8.696;2022-12-20T05:13:36;4.20;99.90
22742;DHT22;11538;48.884;8.696;2022-12-20T05:16:03;4.20;99.90
22742;DHT22;11538;48.884;8.696;2022-12-20T05:18:30;4.20;99.90
22742;DHT22;11538;48.884;8.696;2022-12-20T05:20:58;4.30;99.90
22742;DHT22;11538;48.884;8.696;2022-12-20T05:23:44;4.30;99.90
22742;DHT22;11538;48.884;8.696;2022-12-20T05:26:31;4.20;99.90
22742;DHT22;11538;48.884;8.696;2022-12-20T05:29:02;4.30;99.90
22742;DHT22;11538;48.884;8.696;2022-12-20T05:31:29;4.30;99.90
22742;DHT22;11538;48.884;8.696;2022-12-20T05:33:57;4.30;99.90
22742;DHT22;11538;48.884;8.696;2022-12-20T05:36:24;4.30;99.90
22742;DHT22;11538;48.884;8.696;2022-12-20T05:38:52;4.30;99.90
22742;DHT22;11538;48.884;8.696;2022-12-20T05:41:28;4.30;99.90
22742;DHT22;11538;48.884;8.696;2022-12-20T05:43:55;4.30;99.90
22742;DHT22;11538;48.884;8.696;2022-12-20T05:46:22;4.30;99.90
22742;DHT22;11538;48.884;8.696;2022-12-20T05:48:49;4.30;99.90
22742;DHT22;11538;48.884;8.696;2022-12-20T05:51:16;4.30;99.90
22742;DHT22;11538;48.884;8.696;2022-12-20T05:53:43;4.30;99.90
22742;DHT22;11538;48.884;8.696;2022-12-20T05:56:10;4.30;99.90
22742;DHT22;11538;48.884;8.696;2022-12-20T05:58:37;4.30;99.90
22742;DHT22;11538;48.884;8.696;2022-12-20T06:01:04;4.30;99.90
22742;DHT22;11538;48.884;8.696;2022-12-20T06:03:32;4.30;99.90
22742;DHT22;11538;48.884;8.696;2022-12-20T06:06:00;4.30;99.90
22742;DHT22;11538;48.884;8.696;2022-12-20T06:08:26;4.30;99.90
22742;DHT22;11538;48.884;8.696;2022-12-20T06:10:53;4.30;99.90
22742;DHT22;11538;48.884;8.696;2022-12-20T06:13:20;4.30;99.90
22742;DHT22;11538;48.884;8.696;2022-12-20T06:15:47;4.30;99.90
22742;DHT22;11538;48.884;8.696;2022-12-20T06:18:14;4.30;99.90
22742;DHT22;11538;48.884;8.696;2022-12-20T06:20:41;4.30;99.90
22742;DHT22;11538;48.884;8.696;2022-12-20T06:23:08;4.30;99.90
22742;DHT22;11538;48.884;8.696;2022-12-20T06:25:35;4.30;99.90
22742;DHT22;11538;48.884;8.696;2022-12-20T06:28:03;4.30;99.90
22742;DHT22;11538;48.884;8.696;2022-12-20T06:30:31;4.30;99.90
22742;DHT22;11538;48.884;8.696;2022-12-20T06:33:00;4.30;99.90
22742;DHT22;11538;48.884;8.696;2022-12-20T06:35:27;4.30;99.90
22742;DHT22;11538;48.884;8.696;2022-12-20T06:37:55;4.30;99.90
22742;DHT22;11538;48.884;8.696;2022-12-20T06:40:22;4.30;99.90
22742;DHT22;11538;48.884;8.696;2022-12-20T06:42:52;4.30;99.90
22742;DHT22;11538;48.884;8.696;2022-12-20T06:45:18;4.30;99.90
22742;DHT22;11538;48.884;8.696;2022-12-20T06:47:45;4.30;99.90
22742;DHT22;11538;48.884;8.696;2022-12-20T06:50:12;4.30;99.90
22742;DHT22;11538;48.884;8.696;2022-12-20T06:52:39;4.30;99.90
22742;DHT22;11538;48.884;8.696;2022-12-20T06:55:05;4.30;99.90
22742;DHT22;11538;48.884;8.696;2022-12-20T06:57:32;4.30;99.90
22742;DHT22;11538;48.884;8.696;2022-12-20T06:59:59;4.30;99.90
22742;DHT22;11538;48.884;8.696;2022-12-20T07:02:26;4.30;99.90
22742;DHT22;11538;48.884;8.696;2022-12-20T07:04:53;4.40;99.90
22742;DHT22;11538;48.884;8.696;2022-12-20T07:07:20;4.40;99.90
22742;DHT22;11538;48.884;8.696;2022-12-20T07:09:47;4.40;99.90
22742;DHT22;11538;48.884;8.696;2022-12-20T07:12:14;4.40;99.90
22742;DHT22;11538;48.884;8.696;2022-12-20T07:14:41;4.40;99.90
22742;DHT22;11538;48.884;8.696;2022-12-20T07:17:09;4.40;99.90
22742;DHT22;11538;48.884;8.696;2022-12-20T07:19:36;4.40;99.90
22742;DHT22;11538;48.884;8.696;2022-12-20T07:22:03;4.40;99.90
22742;DHT22;11538;48.884;8.696;2022-12-20T07:24:31;4.40;99.90
22742;DHT22;11538;48.884;8.696;2022-12-20T07:26:59;4.40;99.90
22742;DHT22;11538;48.884;8.696;2022-12-20T07:29:27;4.40;99.90
22742;DHT22;11538;48.884;8.696;2022-12-20T07:31:54;4.40;99.90
22742;DHT22;11538;48.884;8.696;2022-12-20T07:34:21;4.40;99.90
22742;DHT22;11538;48.884;8.696;2022-12-20T07:36:48;4.40;99.90
22742;DHT22;11538;48.884;8.696;2022-12-20T07:39:15;4.50;99.90
22742;DHT22;11538;48.884;8.696;2022-12-20T07:41:42;4.50;99.90
22742;DHT22;11538;48.884;8.696;2022-12-20T07:44:09;4.50;99.90
22742;DHT22;11538;48.884;8.696;2022-12-20T07:46:36;4.50;99.90
22742;DHT22;11538;48.884;8.696;2022-12-20T07:49:03;4.50;99.90
22742;DHT22;11538;48.884;8.696;2022-12-20T07:51:35;4.50;99.90
22742;DHT22;11538;48.884;8.696;2022-12-20T07:54:08;4.60;99.90
22742;DHT22;11538;48.884;8.696;2022-12-20T07:56:39;4.60;99.90
22742;DHT22;11538;48.884;8.696;2022-12-20T07:59:12;4.60;99.90
22742;DHT22;11538;48.884;8.696;2022-12-20T08:01:41;4.60;99.90
22742;DHT22;11538;48.884;8.696;2022-12-20T08:04:15;4.60;99.90
22742;DHT22;11538;48.884;8.696;2022-12-20T08:06:47;4.60;99.90
22742;DHT22;11538;48.884;8.696;2022-12-20T08:09:14;4.60;99.90
22742;DHT22;11538;48.884;8.696;2022-12-20T08:11:43;4.70;99.90
22742;DHT22;11538;48.884;8.696;2022-12-20T08:14:12;4.70;99.90
22742;DHT22;11538;48.884;8.696;2022-12-20T08:16:39;4.70;99.90
22742;DHT22;11538;48.884;8.696;2022-12-20T08:19:07;4.70;99.90
22742;DHT22;11538;48.884;8.696;2022-12-20T08:21:33;4.70;99.90
22742;DHT22;11538;48.884;8.696;2022-12-20T08:24:00;4.70;99.90
22742;DHT22;11538;48.884;8.696;2022-12-20T08:26:27;4.80;99.90
22742;DHT22;11538;48.884;8.696;2022-12-20T08:28:54;4.80;99.90
22742;DHT22;11538;48.884;8.696;2022-12-20T08:31:21;4.80;99.90
22742;DHT22;11538;48.884;8.696;2022-12-20T08:33:48;4.90;99.90
22742;DHT22;11538;48.884;8.696;2022-12-20T08:36:15;4.90;99.90
22742;DHT22;11538;48.884;8.696;2022-12-20T08:38:41;4.90;99.90
22742;DHT22;11538;48.884;8.696;2022-12-20T08:41:09;4.90;99.90
22742;DHT22;11538;48.884;8.696;2022-12-20T08:43:38;4.90;99.90
22742;DHT22;11538;48.884;8.696;2022-12-20T08:46:09;4.90;99.90
22742;DHT22;11538;48.884;8.696;2022-12-20T08:48:38;4.90;99.90
22742;DHT22;11538;48.884;8.696;2022-12-20T08:51:07;4.90;99.90
22742;DHT22;11538;48.884;8.696;2022-12-20T08:53:35;4.90;99.90
22742;DHT22;11538;48.884;8.696;2022-12-20T08:56:06;5.00;99.90
22742;DHT22;11538;48.884;8.696;2022-12-20T08:58:35;5.00;99.90
22742;DHT22;11538;48.884;8.696;2022-12-20T09:01:04;5.00;99.90
22742;DHT22;11538;48.884;8.696;2022-12-20T09:03:33;5.00;99.90
22742;DHT22;11538;48.884;8.696;2022-12-20T09:06:03;5.10;99.90
22742;DHT22;11538;48.884;8.696;2022-12-20T09:08:35;5.10;99.90
22742;DHT22;11538;48.884;8.696;2022-12-20T09:11:13;5.10;99.90
22742;DHT22;11538;48.884;8.696;2022-12-20T09:13:49;5.20;99.90
22742;DHT22;11538;48.884;8.696;2022-12-20T09:16:18;5.20;99.90
22742;DHT22;11538;48.884;8.696;2022-12-20T09:18:48;5.30;99.90
22742;DHT22;11538;48.884;8.696;2022-12-20T09:21:18;5.30;99.90
22742;DHT22;11538;48.884;8.696;2022-12-20T09:23:46;5.40;99.90
22742;DHT22;11538;48.884;8.696;2022-12-20T09:26:15;5.40;99.90
22742;DHT22;11538;48.884;8.696;2022-12-20T09:28:43;5.40;99.90
22742;DHT22;11538;48.884;8.696;2022-12-20T09:31:11;5.50;99.90
22742;DHT22;11538;48.884;8.696;2022-12-20T09:33:40;5.50;99.90
22742;DHT22;11538;48.884;8.696;2022-12-20T09:36:12;5.50;99.90
22742;DHT22;11538;48.884;8.696;2022-12-20T09:38:40;5.60;99.90
22742;DHT22;11538;48.884;8.696;2022-12-20T09:41:07;5.60;99.90
22742;DHT22;11538;48.884;8.696;2022-12-20T09:43:48;5.60;99.90
22742;DHT22;11538;48.884;8.696;2022-12-20T09:46:15;5.70;99.90
22742;DHT22;11538;48.884;8.696;2022-12-20T09:48:42;5.70;99.90
22742;DHT22;11538;48.884;8.696;2022-12-20T09:59:28;5.70;99.90
22742;DHT22;11538;48.884;8.696;2022-12-20T10:02:06;5.80;99.90
22742;DHT22;11538;48.884;8.696;2022-12-20T10:04:55;5.80;99.90
22742;DHT22;11538;48.884;8.696;2022-12-20T10:07:32;5.80;99.90
22742;DHT22;11538;48.884;8.696;2022-12-20T10:15:55;6.00;99.90
22742;DHT22;11538;48.884;8.696;2022-12-20T10:24:02;6.10;99.90
22742;DHT22;11538;48.884;8.696;2022-12-20T10:26:37;6.10;99.90
22742;DHT22;11538;48.884;8.696;2022-12-20T10:29:04;6.20;99.90
22742;DHT22;11538;48.884;8.696;2022-12-20T10:31:31;6.20;99.90
22742;DHT22;11538;48.884;8.696;2022-12-20T10:33:58;6.30;99.90
22742;DHT22;11538;48.884;8.696;2022-12-20T10:36:26;6.30;99.90
22742;DHT22;11538;48.884;8.696;2022-12-20T10:38:54;6.30;99.90
22742;DHT22;11538;48.884;8.696;2022-12-20T10:41:24;6.40;99.90
22742;DHT22;11538;48.884;8.696;2022-12-20T10:46:41;6.40;99.90
22742;DHT22;11538;48.884;8.696;2022-12-20T10:49:20;6.50;99.90
22742;DHT22;11538;48.884;8.696;2022-12-20T10:51:53;6.50;99.90
22742;DHT22;11538;48.884;8.696;2022-12-20T10:57:20;6.50;99.90
22742;DHT22;11538;48.884;8.696;2022-12-20T10:59:51;6.50;99.90
22742;DHT22;11538;48.884;8.696;2022-12-20T11:07:38;6.60;99.90
22742;DHT22;11538;48.884;8.696;2022-12-20T11:10:37;6.50;99.90
22742;DHT22;11538;48.884;8.696;2022-12-20T11:13:04;6.60;99.90
22742;DHT22;11538;48.884;8.696;2022-12-20T11:15:33;6.60;99.90
22742;DHT22;11538;48.884;8.696;2022-12-20T11:18:05;6.60;99.90
22742;DHT22;11538;48.884;8.696;2022-12-20T11:20:41;6.60;99.90
22742;DHT22;11538;48.884;8.696;2022-12-20T11:24:16;6.60;99.90
22742;DHT22;11538;48.884;8.696;2022-12-20T11:29:16;6.60;99.90
22742;DHT22;11538;48.884;8.696;2022-12-20T11:38:13;6.70;99.90
22742;DHT22;11538;48.884;8.696;2022-12-20T11:40:36;6.70;99.90
22742;DHT22;11538;48.884;8.696;2022-12-20T11:49:28;6.70;99.90
22742;DHT22;11538;48.884;8.696;2022-12-20T11:54:55;6.70;99.90
22742;DHT22;11538;48.884;8.696;2022-12-20T11:57:36;6.80;99.90
22742;DHT22;11538;48.884;8.696;2022-12-20T12:00:52;6.70;99.90
22742;DHT22;11538;48.884;8.696;2022-12-20T12:03:28;6.80;99.90
22742;DHT22;11538;48.884;8.696;2022-12-20T12:06:20;6.80;99.90
22742;DHT22;11538;48.884;8.696;2022-12-20T12:11:48;6.80;99.90
22742;DHT22;11538;48.884;8.696;2022-12-20T12:17:27;6.90;99.90
22742;DHT22;11538;48.884;8.696;2022-12-20T12:20:08;6.90;99.90
22742;DHT22;11538;48.884;8.696;2022-12-20T12:22:45;6.90;99.90
22742;DHT22;11538;48.884;8.696;2022-12-20T12:25:17;6.90;99.90
22742;DHT22;11538;48.884;8.696;2022-12-20T12:27:44;7.00;99.90
22742;DHT22;11538;48.884;8.696;2022-12-20T12:30:15;7.10;99.90
22742;DHT22;11538;48.884;8.696;2022-12-20T12:32:57;7.20;99.90
22742;DHT22;11538;48.884;8.696;2022-12-20T12:35:37;7.20;99.90
22742;DHT22;11538;48.884;8.696;2022-12-20T12:46:28;7.40;99.90
22742;DHT22;11538;48.884;8.696;2022-12-20T12:49:19;7.50;99.90
22742;DHT22;11538;48.884;8.696;2022-12-20T12:51:50;7.50;99.90
22742;DHT22;11538;48.884;8.696;2022-12-20T12:54:36;7.60;99.90
22742;DHT22;11538;48.884;8.696;2022-12-20T12:57:12;7.60;99.90
22742;DHT22;11538;48.884;8.696;2022-12-20T12:59:42;7.60;99.90
22742;DHT22;11538;48.884;8.696;2022-12-20T13:10:54;7.70;99.90
22742;DHT22;11538;48.884;8.696;2022-12-20T13:12:57;7.70;99.90
22742;DHT22;11538;48.884;8.696;2022-12-20T13:18:00;7.80;99.90
22742;DHT22;11538;48.884;8.696;2022-12-20T13:23:44;7.80;99.90
22742;DHT22;11538;48.884;8.696;2022-12-20T13:29:34;7.80;99.90
22742;DHT22;11538;48.884;8.696;2022-12-20T13:32:01;7.80;99.90
22742;DHT22;11538;48.884;8.696;2022-12-20T13:37:24;7.90;99.90
22742;DHT22;11538;48.884;8.696;2022-12-20T13:39:54;7.80;99.90
22742;DHT22;11538;48.884;8.696;2022-12-20T13:45:05;7.80;99.90
22742;DHT22;11538;48.884;8.696;2022-12-20T13:47:44;7.80;99.90
22742;DHT22;11538;48.884;8.696;2022-12-20T13:53:16;7.80;99.90
22742;DHT22;11538;48.884;8.696;2022-12-20T13:55:45;7.80;99.90
22742;DHT22;11538;48.884;8.696;2022-12-20T13:58:19;7.80;99.90
22742;DHT22;11538;48.884;8.696;2022-12-20T14:00:50;7.80;99.90
22742;DHT22;11538;48.884;8.696;2022-12-20T14:03:20;7.80;99.90
22742;DHT22;11538;48.884;8.696;2022-12-20T14:05:50;7.80;99.90
22742;DHT22;11538;48.884;8.696;2022-12-20T14:08:23;7.90;99.90
22742;DHT22;11538;48.884;8.696;2022-12-20T14:10:53;7.90;99.90
22742;DHT22;11538;48.884;8.696;2022-12-20T14:13:24;7.90;99.90
22742;DHT22;11538;48.884;8.696;2022-12-20T14:15:52;7.80;99.90
22742;DHT22;11538;48.884;8.696;2022-12-20T14:18:23;7.80;99.90
22742;DHT22;11538;48.884;8.696;2022-12-20T14:20:58;7.90;99.90
22742;DHT22;11538;48.884;8.696;2022-12-20T14:26:05;7.90;99.90
22742;DHT22;11538;48.884;8.696;2022-12-20T14:28:45;7.90;99.90
22742;DHT22;11538;48.884;8.696;2022-12-20T14:36:37;7.90;99.90
22742;DHT22;11538;48.884;8.696;2022-12-20T14:42:00;7.90;99.90
22742;DHT22;11538;48.884;8.696;2022-12-20T14:44:29;7.90;99.90
22742;DHT22;11538;48.884;8.696;2022-12-20T14:46:58;7.80;99.90
22742;DHT22;11538;48.884;8.696;2022-12-20T14:49:27;7.80;99.90
22742;DHT22;11538;48.884;8.696;2022-12-20T15:08:20;7.70;99.90
22742;DHT22;11538;48.884;8.696;2022-12-20T15:13:50;7.60;99.90
22742;DHT22;11538;48.884;8.696;2022-12-20T15:16:20;7.60;99.90
22742;DHT22;11538;48.884;8.696;2022-12-20T15:18:50;7.60;99.90
22742;DHT22;11538;48.884;8.696;2022-12-20T15:23:56;7.60;99.90
22742;DHT22;11538;48.884;8.696;2022-12-20T15:26:25;7.50;99.90
22742;DHT22;11538;48.884;8.696;2022-12-20T15:28:53;7.50;99.90
22742;DHT22;11538;48.884;8.696;2022-12-20T15:31:20;7.50;99.90
22742;DHT22;11538;48.884;8.696;2022-12-20T15:33:59;7.50;99.90
22742;DHT22;11538;48.884;8.696;2022-12-20T15:36:29;7.50;99.90
22742;DHT22;11538;48.884;8.696;2022-12-20T15:38:56;7.50;99.90
22742;DHT22;11538;48.884;8.696;2022-12-20T15:41:42;7.50;99.90
22742;DHT22;11538;48.884;8.696;2022-12-20T15:44:12;7.50;99.90
22742;DHT22;11538;48.884;8.696;2022-12-20T15:46:40;7.40;99.90
22742;DHT22;11538;48.884;8.696;2022-12-20T15:49:12;7.40;99.90
22742;DHT22;11538;48.884;8.696;2022-12-20T15:51:44;7.40;99.90
22742;DHT22;11538;48.884;8.696;2022-12-20T15:56:56;7.40;99.90
22742;DHT22;11538;48.884;8.696;2022-12-20T15:59:24;7.30;99.90
22742;DHT22;11538;48.884;8.696;2022-12-20T16:02:25;7.30;99.90
22742;DHT22;11538;48.884;8.696;2022-12-20T16:04:54;7.30;99.90
22742;DHT22;11538;48.884;8.696;2022-12-20T16:07:21;7.30;99.90
22742;DHT22;11538;48.884;8.696;2022-12-20T16:09:49;7.30;99.90
22742;DHT22;11538;48.884;8.696;2022-12-20T16:12:20;7.30;99.90
22742;DHT22;11538;48.884;8.696;2022-12-20T16:14:50;7.30;99.90
22742;DHT22;11538;48.884;8.696;2022-12-20T16:17:17;7.40;99.90
22742;DHT22;11538;48.884;8.696;2022-12-20T16:19:44;7.30;99.90
22742;DHT22;11538;48.884;8.696;2022-12-20T16:22:15;7.40;99.90
22742;DHT22;11538;48.884;8.696;2022-12-20T16:24:44;7.40;99.90
22742;DHT22;11538;48.884;8.696;2022-12-20T16:27:11;7.40;99.90
22742;DHT22;11538;48.884;8.696;2022-12-20T16:29:38;7.40;99.90
22742;DHT22;11538;48.884;8.696;2022-12-20T16:32:13;7.40;99.90
22742;DHT22;11538;48.884;8.696;2022-12-20T16:34:41;7.30;99.90
22742;DHT22;11538;48.884;8.696;2022-12-20T16:37:09;7.40;99.90
22742;DHT22;11538;48.884;8.696;2022-12-20T16:39:37;7.30;99.90
22742;DHT22;11538;48.884;8.696;2022-12-20T16:42:08;7.30;99.90
22742;DHT22;11538;48.884;8.696;2022-12-20T16:44:39;7.20;99.90
22742;DHT22;11538;48.884;8.696;2022-12-20T16:47:09;7.20;99.90
22742;DHT22;11538;48.884;8.696;2022-12-20T16:49:36;7.20;99.90
22742;DHT22;11538;48.884;8.696;2022-12-20T16:52:03;7.10;99.90
22742;DHT22;11538;48.884;8.696;2022-12-20T16:54:32;7.10;99.90
22742;DHT22;11538;48.884;8.696;2022-12-20T16:56:59;7.00;99.90
22742;DHT22;11538;48.884;8.696;2022-12-20T16:59:25;7.10;99.90
22742;DHT22;11538;48.884;8.696;2022-12-20T17:01:53;7.00;99.90
22742;DHT22;11538;48.884;8.696;2022-12-20T17:04:22;7.00;99.90
22742;DHT22;11538;48.884;8.696;2022-12-20T17:06:49;7.00;99.90
22742;DHT22;11538;48.884;8.696;2022-12-20T17:09:17;7.00;99.90
22742;DHT22;11538;48.884;8.696;2022-12-20T17:11:44;7.00;99.90
22742;DHT22;11538;48.884;8.696;2022-12-20T17:14:12;7.00;99.90
22742;DHT22;11538;48.884;8.696;2022-12-20T17:16:39;7.00;99.90
22742;DHT22;11538;48.884;8.696;2022-12-20T17:19:06;6.90;99.90
22742;DHT22;11538;48.884;8.696;2022-12-20T17:21:39;6.90;99.90
22742;DHT22;11538;48.884;8.696;2022-12-20T17:24:26;6.90;99.90
22742;DHT22;11538;48.884;8.696;2022-12-20T17:26:53;6.90;99.90
22742;DHT22;11538;48.884;8.696;2022-12-20T17:29:20;6.90;99.90
22742;DHT22;11538;48.884;8.696;2022-12-20T17:31:47;6.80;99.90
22742;DHT22;11538;48.884;8.696;2022-12-20T17:34:16;6.90;99.90
22742;DHT22;11538;48.884;8.696;2022-12-20T17:36:45;6.80;99.90
22742;DHT22;11538;48.884;8.696;2022-12-20T17:39:13;6.80;99.90
22742;DHT22;11538;48.884;8.696;2022-12-20T17:41:40;6.80;99.90
22742;DHT22;11538;48.884;8.696;2022-12-20T17:44:18;6.80;99.90
22742;DHT22;11538;48.884;8.696;2022-12-20T17:46:46;6.80;99.90
22742;DHT22;11538;48.884;8.696;2022-12-20T17:49:14;6.80;99.90
22742;DHT22;11538;48.884;8.696;2022-12-20T17:51:41;6.80;99.90
22742;DHT22;11538;48.884;8.696;2022-12-20T17:54:13;6.80;99.90
22742;DHT22;11538;48.884;8.696;2022-12-20T17:56:43;6.80;99.90
22742;DHT22;11538;48.884;8.696;2022-12-20T17:59:11;6.80;99.90
22742;DHT22;11538;48.884;8.696;2022-12-20T18:01:39;6.80;99.90
22742;DHT22;11538;48.884;8.696;2022-12-20T18:04:12;6.80;99.90
22742;DHT22;11538;48.884;8.696;2022-12-20T18:06:42;6.80;99.90
22742;DHT22;11538;48.884;8.696;2022-12-20T18:09:11;6.70;99.90
22742;DHT22;11538;48.884;8.696;2022-12-20T18:11:40;6.70;99.90
22742;DHT22;11538;48.884;8.696;2022-12-20T18:14:07;6.70;99.90
22742;DHT22;11538;48.884;8.696;2022-12-20T18:16:34;6.70;99.90
22742;DHT22;11538;48.884;8.696;2022-12-20T18:19:01;6.70;99.90